createdAt,value
2023-12-03T00:03:27.291Z,98.40
2023-12-03T00:07:34.209Z,98.40
2023-12-03T00:11:40.108Z,98.60
2023-12-03T00:15:45.842Z,98.50
2023-12-03T00:19:51.446Z,98.40
2023-12-03T00:23:56.997Z,98.80
2023-12-03T00:28:02.642Z,98.30
2023-12-03T00:32:08.695Z,98.10
2023-12-03T00:36:14.437Z,98.00
2023-12-03T00:40:19.964Z,98.10
2023-12-03T00:44:25.993Z,98.20
2023-12-03T00:48:31.684Z,98.30
2023-12-03T00:52:37.356Z,98.40
2023-12-03T00:56:42.870Z,98.50
2023-12-03T01:00:48.734Z,98.40
2023-12-03T01:04:54.448Z,98.40
2023-12-03T01:09:00.044Z,98.30
2023-12-03T01:13:05.661Z,98.40
2023-12-03T01:17:11.187Z,98.40
2023-12-03T01:21:16.851Z,98.40
2023-12-03T01:25:22.710Z,98.40
2023-12-03T01:29:29.449Z,98.30
2023-12-03T01:33:35.294Z,98.30
2023-12-03T01:37:40.871Z,98.40
2023-12-03T01:41:46.342Z,98.50
2023-12-03T01:45:51.993Z,98.60
2023-12-03T01:50:08.311Z,98.50
2023-12-03T01:54:14.219Z,98.60
2023-12-03T01:58:19.948Z,98.50
2023-12-03T02:02:25.633Z,98.50
2023-12-03T02:06:31.310Z,98.50
2023-12-03T02:10:36.978Z,98.60
2023-12-03T02:14:42.580Z,98.60
2023-12-03T02:18:48.437Z,98.70
2023-12-03T02:23:01.691Z,98.60
2023-12-03T02:27:07.517Z,98.60
2023-12-03T02:31:13.175Z,98.60
2023-12-03T02:35:18.774Z,98.80
2023-12-03T02:39:24.395Z,98.40
2023-12-03T02:43:29.999Z,98.40
2023-12-03T02:47:35.874Z,98.50
2023-12-03T02:51:41.505Z,98.50
2023-12-03T02:55:47.231Z,98.30
2023-12-03T02:59:52.712Z,98.30
2023-12-03T03:03:58.362Z,98.20
2023-12-03T03:08:04.051Z,98.20
2023-12-03T03:12:09.675Z,98.10
2023-12-03T03:16:15.418Z,98.20
2023-12-03T03:20:23.053Z,98.30
2023-12-03T03:24:29.388Z,98.20
2023-12-03T03:28:34.992Z,98.20
2023-12-03T03:32:40.638Z,98.30
2023-12-03T03:36:46.416Z,98.30
2023-12-03T03:40:51.942Z,98.20
2023-12-03T03:44:57.490Z,98.00
2023-12-03T03:49:03.216Z,97.90
2023-12-03T03:53:08.828Z,97.80
2023-12-03T03:57:14.346Z,97.80
2023-12-03T04:01:19.953Z,97.80
2023-12-03T04:05:25.617Z,98.00
2023-12-03T04:09:33.364Z,98.00
2023-12-03T04:13:38.955Z,98.10
2023-12-03T04:17:44.725Z,98.20
2023-12-03T04:21:50.407Z,98.20
2023-12-03T04:25:56.006Z,98.30
2023-12-03T04:30:01.705Z,98.60
2023-12-03T04:34:07.453Z,98.70
2023-12-03T04:38:13.852Z,98.80
2023-12-03T04:42:19.443Z,98.90
2023-12-03T04:46:25.009Z,99.10
2023-12-03T04:50:30.535Z,99.20
2023-12-03T04:54:36.399Z,99.30
2023-12-03T04:58:43.270Z,99.30
2023-12-03T05:02:48.941Z,99.40
2023-12-03T05:06:55.760Z,99.50
2023-12-03T05:11:06.849Z,99.50
2023-12-03T05:15:12.488Z,99.50
2023-12-03T05:19:18.122Z,99.50
2023-12-03T05:23:24.422Z,99.70
2023-12-03T05:27:30.080Z,99.80
2023-12-03T05:31:35.652Z,99.90
2023-12-03T05:35:41.228Z,99.90
2023-12-03T05:39:46.788Z,99.90
2023-12-03T05:43:53.290Z,99.90
2023-12-03T05:47:58.924Z,99.90
2023-12-03T05:52:04.777Z,99.90
2023-12-03T05:56:11.148Z,99.90
2023-12-03T06:00:17.466Z,99.90
2023-12-03T06:04:23.133Z,99.90
2023-12-03T06:08:28.998Z,99.90
2023-12-03T06:12:34.525Z,99.90
2023-12-03T06:16:40.121Z,99.90
2023-12-03T06:20:45.592Z,99.90
2023-12-03T06:24:51.327Z,99.90
2023-12-03T06:28:57.364Z,99.90
2023-12-03T06:33:03.134Z,99.90
2023-12-03T06:37:09.422Z,99.90
2023-12-03T06:41:15.988Z,99.90
2023-12-03T06:45:21.603Z,99.90
2023-12-03T06:49:27.213Z,99.90
2023-12-03T06:53:32.800Z,99.90
2023-12-03T06:57:38.288Z,99.90
2023-12-03T07:01:43.892Z,99.90
2023-12-03T07:05:50.091Z,99.90
2023-12-03T07:09:55.668Z,99.90
2023-12-03T07:14:01.618Z,99.90
2023-12-03T07:18:07.190Z,99.90
2023-12-03T07:22:13.216Z,99.90
2023-12-03T07:26:18.758Z,99.90
2023-12-03T07:30:25.346Z,99.90
2023-12-03T07:34:31.171Z,99.90
2023-12-03T07:38:36.698Z,99.90
2023-12-03T07:42:42.342Z,99.90
2023-12-03T07:46:48.433Z,99.90
2023-12-03T07:50:53.972Z,99.90
2023-12-03T07:54:59.636Z,99.90
2023-12-03T07:59:05.727Z,99.90
2023-12-03T08:03:11.328Z,99.90
2023-12-03T08:07:17.667Z,99.90
2023-12-03T08:11:23.391Z,99.90
2023-12-03T08:15:29.027Z,99.90
2023-12-03T08:19:34.976Z,99.90
2023-12-03T08:23:41.683Z,99.90
2023-12-03T08:27:47.609Z,99.90
2023-12-03T08:31:53.232Z,99.90
2023-12-03T08:35:58.896Z,99.90
2023-12-03T08:40:06.222Z,99.90
2023-12-03T08:44:12.064Z,99.90
2023-12-03T08:48:17.776Z,99.90
2023-12-03T08:52:23.319Z,99.90
2023-12-03T08:56:29.049Z,99.90
2023-12-03T09:00:34.669Z,99.90
2023-12-03T09:04:40.223Z,99.90
2023-12-03T09:08:45.672Z,99.90
2023-12-03T09:12:51.511Z,99.90
2023-12-03T09:16:56.931Z,99.90
2023-12-03T09:21:02.401Z,99.90
2023-12-03T09:25:08.069Z,99.90
2023-12-03T09:29:13.531Z,99.90
2023-12-03T09:33:18.991Z,99.90
2023-12-03T09:37:24.347Z,99.90
2023-12-03T09:41:35.893Z,99.90
2023-12-03T09:45:41.709Z,99.90
2023-12-03T09:49:48.471Z,99.90
2023-12-03T09:53:55.332Z,99.90
2023-12-03T09:58:00.884Z,99.90
2023-12-03T10:02:10.012Z,99.90
2023-12-03T10:06:17.741Z,99.90
2023-12-03T10:10:26.315Z,99.90
2023-12-03T10:14:31.792Z,99.90
2023-12-03T10:18:37.576Z,99.90
2023-12-03T10:22:42.968Z,99.90
2023-12-03T10:26:52.596Z,99.90
2023-12-03T10:30:57.936Z,99.90
2023-12-03T10:35:03.813Z,99.90
2023-12-03T10:39:09.809Z,99.90
2023-12-03T10:43:15.197Z,99.90
2023-12-03T10:47:21.111Z,99.90
2023-12-03T10:51:26.528Z,99.90
2023-12-03T10:55:32.938Z,99.90
2023-12-03T10:59:41.429Z,99.90
2023-12-03T11:03:55.362Z,99.90
2023-12-03T11:08:03.070Z,99.90
2023-12-03T11:12:08.950Z,99.90
2023-12-03T11:16:14.862Z,99.90
2023-12-03T11:20:24.930Z,99.90
2023-12-03T11:24:36.161Z,99.90
2023-12-03T11:28:57.257Z,99.90
2023-12-03T11:33:04.100Z,99.90
2023-12-03T11:37:10.546Z,99.80
2023-12-03T11:41:16.167Z,99.80
2023-12-03T11:45:27.317Z,99.90
2023-12-03T11:49:37.748Z,99.90
2023-12-03T11:54:01.964Z,99.80
2023-12-03T11:58:07.512Z,99.80
2023-12-03T12:02:15.277Z,99.80
2023-12-03T12:06:28.285Z,99.80
2023-12-03T12:10:34.499Z,99.90
2023-12-03T12:14:40.193Z,99.90
2023-12-03T12:18:47.284Z,99.90
2023-12-03T12:22:53.738Z,99.90
2023-12-03T12:26:59.884Z,99.90
2023-12-03T12:31:06.266Z,99.90
2023-12-03T12:35:11.663Z,99.90
2023-12-03T12:39:27.758Z,99.90
2023-12-03T12:43:33.202Z,99.90
2023-12-03T12:47:40.873Z,99.90
2023-12-03T12:51:46.490Z,99.90
2023-12-03T12:55:51.979Z,99.90
2023-12-03T12:59:58.404Z,99.90
2023-12-03T13:04:07.944Z,99.90
2023-12-03T13:08:13.518Z,99.90
2023-12-03T13:12:19.054Z,99.80
2023-12-03T13:16:24.946Z,99.80
2023-12-03T13:20:31.894Z,99.70
2023-12-03T13:24:38.448Z,99.60
2023-12-03T13:28:45.545Z,99.70
2023-12-03T13:32:52.192Z,99.60
2023-12-03T13:36:57.689Z,99.50
2023-12-03T13:41:03.368Z,99.60
2023-12-03T13:45:08.989Z,99.80
2023-12-03T13:49:14.595Z,99.70
2023-12-03T13:53:20.544Z,99.80
2023-12-03T13:57:26.838Z,99.90
2023-12-03T14:01:32.608Z,99.90
2023-12-03T14:05:38.086Z,99.90
2023-12-03T14:09:44.799Z,99.90
2023-12-03T14:13:50.316Z,99.90
2023-12-03T14:17:55.851Z,99.90
2023-12-03T14:22:01.326Z,99.90
2023-12-03T14:26:07.182Z,99.90
2023-12-03T14:30:13.041Z,99.90
2023-12-03T14:34:18.507Z,99.90
2023-12-03T14:38:23.817Z,99.90
2023-12-03T14:42:29.392Z,99.90
2023-12-03T14:46:34.938Z,99.90
2023-12-03T14:50:40.405Z,99.90
2023-12-03T14:54:45.850Z,99.90
2023-12-03T14:58:51.534Z,99.90
2023-12-03T15:02:57.073Z,99.90
2023-12-03T15:07:02.747Z,99.90
2023-12-03T15:11:08.238Z,99.90
2023-12-03T15:15:14.437Z,99.90
2023-12-03T15:19:20.266Z,99.90
2023-12-03T15:23:25.921Z,99.90
2023-12-03T15:27:31.456Z,99.90
2023-12-03T15:31:37.390Z,99.90
2023-12-03T15:35:42.848Z,99.90
2023-12-03T15:39:48.768Z,99.90
2023-12-03T15:43:54.148Z,99.90
2023-12-03T15:47:59.883Z,99.90
2023-12-03T15:52:05.582Z,99.90
2023-12-03T15:56:11.559Z,99.90
2023-12-03T16:00:17.216Z,99.90
2023-12-03T16:04:22.772Z,99.90
2023-12-03T16:08:28.149Z,99.90
2023-12-03T16:12:33.631Z,99.90
2023-12-03T16:16:39.056Z,99.90
2023-12-03T16:20:44.707Z,99.90
2023-12-03T16:24:50.142Z,99.90
2023-12-03T16:28:55.914Z,99.90
2023-12-03T16:33:01.335Z,99.90
2023-12-03T16:37:06.709Z,99.90
2023-12-03T16:41:14.920Z,99.90
2023-12-03T16:45:20.370Z,99.90
2023-12-03T16:49:26.222Z,99.90
2023-12-03T16:53:32.745Z,99.90
2023-12-03T16:57:38.152Z,99.90
2023-12-03T17:01:43.547Z,99.90
2023-12-03T17:05:48.878Z,99.90
2023-12-03T17:09:54.480Z,99.90
2023-12-03T17:13:59.889Z,99.90
2023-12-03T17:18:06.940Z,99.90
2023-12-03T17:22:12.554Z,99.90
2023-12-03T17:26:17.954Z,99.90
2023-12-03T17:30:23.478Z,99.90
2023-12-03T17:34:29.039Z,99.90
2023-12-03T17:38:34.636Z,99.90
2023-12-03T17:42:41.513Z,99.90
2023-12-03T17:46:46.959Z,99.90
2023-12-03T17:50:54.236Z,99.90
2023-12-03T17:55:00.688Z,99.90
2023-12-03T17:59:06.081Z,99.90
2023-12-03T18:03:13.796Z,99.90
2023-12-03T18:07:19.220Z,99.90
2023-12-03T18:11:25.036Z,99.90
2023-12-03T18:15:33.812Z,99.90
2023-12-03T18:19:40.090Z,99.90
2023-12-03T18:23:46.959Z,99.90
2023-12-03T18:27:52.981Z,99.90
2023-12-03T18:31:58.779Z,99.90
2023-12-03T18:36:13.591Z,99.90
2023-12-03T18:40:18.978Z,99.90
2023-12-03T18:44:24.475Z,99.90
2023-12-03T18:48:30.565Z,99.90
2023-12-03T18:52:37.953Z,99.90
2023-12-03T18:56:43.762Z,99.90
2023-12-03T19:00:49.807Z,99.90
2023-12-03T19:04:55.290Z,99.90
2023-12-03T19:09:00.905Z,99.90
2023-12-03T19:13:13.808Z,99.90
2023-12-03T19:17:22.555Z,99.90
2023-12-03T19:21:28.625Z,99.90
2023-12-03T19:25:34.258Z,99.90
2023-12-03T19:29:39.882Z,99.90
2023-12-03T19:33:45.569Z,99.90
2023-12-03T19:37:51.131Z,99.90
2023-12-03T19:41:56.669Z,99.90
2023-12-03T19:46:02.288Z,99.90
2023-12-03T19:50:08.218Z,99.90
2023-12-03T19:54:13.741Z,99.90
2023-12-03T19:58:20.062Z,99.90
2023-12-03T20:02:25.661Z,99.90
2023-12-03T20:06:31.254Z,99.90
2023-12-03T20:10:37.192Z,99.90
2023-12-03T20:14:42.843Z,99.90
2023-12-03T20:18:49.223Z,99.90
2023-12-03T20:22:54.752Z,99.90
2023-12-03T20:27:00.646Z,99.90
2023-12-03T20:31:08.910Z,99.90
2023-12-03T20:35:14.678Z,99.90
2023-12-03T20:39:19.980Z,99.90
2023-12-03T20:43:26.127Z,99.90
2023-12-03T20:47:31.664Z,99.90
2023-12-03T20:51:37.321Z,99.90
2023-12-03T20:55:42.940Z,99.90
2023-12-03T20:59:48.783Z,99.90
2023-12-03T21:03:54.370Z,99.90
2023-12-03T21:07:59.927Z,99.90
2023-12-03T21:12:05.690Z,99.90
2023-12-03T21:16:11.381Z,99.90
2023-12-03T21:20:17.049Z,99.90
2023-12-03T21:24:22.610Z,99.90
2023-12-03T21:28:28.120Z,99.90
2023-12-03T21:32:33.829Z,99.90
2023-12-03T21:36:39.425Z,99.90
2023-12-03T21:40:45.017Z,99.90
2023-12-03T21:44:51.020Z,99.90
2023-12-03T21:48:57.547Z,99.90
2023-12-03T21:53:03.143Z,99.90
2023-12-03T21:57:08.724Z,99.90
2023-12-03T22:01:14.286Z,99.90
2023-12-03T22:05:19.872Z,99.90
2023-12-03T22:09:25.426Z,99.90
2023-12-03T22:13:31.172Z,99.90
2023-12-03T22:17:37.078Z,99.90
2023-12-03T22:21:42.685Z,99.90
2023-12-03T22:25:48.230Z,99.90
2023-12-03T22:29:57.226Z,99.90
2023-12-03T22:34:09.148Z,99.90
2023-12-03T22:38:14.794Z,99.90
2023-12-03T22:42:20.332Z,99.90
2023-12-03T22:46:25.966Z,99.90
2023-12-03T22:50:32.028Z,99.90
2023-12-03T22:54:37.758Z,99.90
2023-12-03T22:58:43.430Z,99.90
2023-12-03T23:02:49.280Z,99.90
2023-12-03T23:06:54.959Z,99.90
2023-12-03T23:11:00.661Z,99.90
2023-12-03T23:15:07.060Z,99.90
2023-12-03T23:19:13.223Z,99.90
2023-12-03T23:23:18.751Z,99.90
2023-12-03T23:27:24.095Z,99.90
2023-12-03T23:31:29.988Z,99.90
2023-12-03T23:35:36.567Z,99.90
2023-12-03T23:39:42.520Z,99.90
2023-12-03T23:43:47.961Z,99.90
2023-12-03T23:47:53.396Z,99.90
2023-12-03T23:51:58.801Z,99.90
2023-12-03T23:56:04.585Z,99.90
